Time;durP1;ratioP1;P1;durP2;ratioP2;P2;SDS_P1;SDS_P2;PMS_P1;PMS_P2;Temp;Humidity;BMP_temperature;BMP_pressure;BME280_temperature;BME280_humidity;BME280_pressure;Samples;Min_cycle;Max_cycle;Signal;HPM_P1;HPM_P2
2022/12/19 00:01:55;;;;;;;56.87;23.40;;;-1.70;99.90;;;;;;4990341;28;21091;-84
2022/12/19 00:04:21;;;;;;;51.30;19.83;;;-1.60;99.90;;;;;;4995289;28;20573;-84
2022/12/19 00:06:46;;;;;;;38.30;17.40;;;-1.50;99.90;;;;;;4994227;28;20954;-86
2022/12/19 00:09:12;;;;;;;52.30;22.33;;;-1.30;99.90;;;;;;4995819;28;20249;-80
2022/12/19 00:11:39;;;;;;;45.83;21.10;;;-1.20;99.90;;;;;;5011388;28;20940;-79
2022/12/19 00:14:05;;;;;;;51.55;22.00;;;-1.10;99.90;;;;;;4998819;28;21198;-80
2022/12/19 00:16:31;;;;;;;49.30;17.25;;;-1.00;99.90;;;;;;4990228;28;20198;-79
2022/12/19 00:18:59;;;;;;;39.90;17.60;;;-0.90;99.90;;;;;;5002506;28;20300;-82
2022/12/19 00:21:27;;;;;;;36.42;17.95;;;-0.90;99.90;;;;;;4999950;28;20680;-85
2022/12/19 00:23:53;;;;;;;39.15;17.70;;;-0.90;99.90;;;;;;4994802;28;20183;-82
2022/12/19 00:26:26;;;;;;;48.58;19.23;;;-1.00;99.90;;;;;;4986425;28;20193;-80
2022/12/19 00:28:55;;;;;;;41.38;17.73;;;-1.00;99.90;;;;;;4997419;28;20850;-84
2022/12/19 00:31:22;;;;;;;39.83;15.75;;;-1.10;99.90;;;;;;4995666;28;20624;-82
2022/12/19 00:33:48;;;;;;;34.55;17.00;;;-1.00;99.90;;;;;;5013816;28;20232;-85
2022/12/19 00:36:20;;;;;;;35.08;13.68;;;-1.00;99.90;;;;;;5015898;28;20207;-82
2022/12/19 00:38:47;;;;;;;43.72;16.35;;;-1.00;99.90;;;;;;5014481;28;20178;-79
2022/12/19 00:41:33;;;;;;;23.83;11.13;;;-1.10;99.90;;;;;;5011808;28;20206;-82
2022/12/19 00:44:04;;;;;;;37.20;15.40;;;-1.10;99.90;;;;;;4995995;28;20178;-83
2022/12/19 00:46:32;;;;;;;23.67;13.32;;;-1.10;99.90;;;;;;4997532;28;20182;-81
2022/12/19 00:48:58;;;;;;;45.72;16.55;;;-1.10;99.90;;;;;;4991201;28;21887;-80
2022/12/19 00:51:26;;;;;;;34.97;14.57;;;-1.10;99.90;;;;;;4998556;28;20217;-81
2022/12/19 00:53:54;;;;;;;40.42;17.45;;;-1.10;99.90;;;;;;4990843;28;20560;-80
2022/12/19 00:56:22;;;;;;;44.97;19.27;;;-1.10;99.90;;;;;;4994235;28;20190;-81
2022/12/19 00:58:48;;;;;;;50.35;20.60;;;-1.10;99.90;;;;;;4995663;28;20182;-82
2022/12/19 01:01:19;;;;;;;34.30;15.07;;;-1.10;99.90;;;;;;4995124;28;20769;-81
2022/12/19 01:03:46;;;;;;;32.33;14.05;;;-1.10;99.90;;;;;;4997305;28;20190;-83
2022/12/19 01:06:11;;;;;;;44.65;18.77;;;-1.00;99.90;;;;;;4988668;28;20202;-82
2022/12/19 01:08:37;;;;;;;41.50;17.03;;;-1.00;99.90;;;;;;4995970;28;20190;-83
2022/12/19 01:11:04;;;;;;;41.47;18.50;;;-1.00;99.90;;;;;;4993397;28;20525;-82
2022/12/19 01:13:31;;;;;;;37.63;16.52;;;-1.00;99.90;;;;;;4983304;28;20195;-81
2022/12/19 01:16:02;;;;;;;40.28;14.30;;;-1.00;99.90;;;;;;4977882;28;20715;-80
2022/12/19 01:18:27;;;;;;;39.22;17.48;;;-1.10;99.90;;;;;;4987882;28;20194;-81
2022/12/19 01:20:53;;;;;;;43.33;17.30;;;-1.10;99.90;;;;;;4977968;28;20199;-80
2022/12/19 01:23:18;;;;;;;29.60;11.43;;;-1.10;99.90;;;;;;4982015;28;20209;-84
2022/12/19 01:25:51;;;;;;;38.83;17.47;;;-1.10;99.90;;;;;;4988384;28;20483;-82
2022/12/19 01:28:16;;;;;;;36.40;15.93;;;-1.20;99.90;;;;;;4991959;28;20186;-85
2022/12/19 01:30:42;;;;;;;39.40;19.47;;;-1.00;99.90;;;;;;4994685;28;20206;-83
2022/12/19 01:33:11;;;;;;;37.40;18.00;;;-1.00;99.90;;;;;;4986977;28;20182;-80
2022/12/19 01:35:37;;;;;;;42.42;16.20;;;-1.00;99.90;;;;;;4998510;28;20936;-82
2022/12/19 01:38:02;;;;;;;45.17;17.97;;;-0.80;99.90;;;;;;4996608;28;20189;-82
2022/12/19 01:40:28;;;;;;;41.30;18.13;;;-0.80;99.90;;;;;;4995362;28;20535;-80
2022/12/19 01:42:53;;;;;;;47.50;16.07;;;-0.80;99.90;;;;;;4996397;28;20186;-84
2022/12/19 01:45:24;;;;;;;39.83;17.80;;;-0.60;99.90;;;;;;4994347;28;20690;-78
2022/12/19 01:48:02;;;;;;;40.90;15.88;;;-0.60;99.90;;;;;;4991640;28;20183;-84
2022/12/19 01:51:01;;;;;;;38.47;15.93;;;-0.60;99.90;;;;;;4991546;28;20253;-81
2022/12/19 01:53:33;;;;;;;42.17;16.25;;;-0.60;99.90;;;;;;4994138;28;20187;-82
2022/12/19 01:56:01;;;;;;;37.70;13.93;;;-0.60;99.90;;;;;;4997111;28;20199;-82
2022/12/19 01:58:26;;;;;;;47.85;18.80;;;-0.50;99.90;;;;;;4993018;28;20210;-81
2022/12/19 02:00:52;;;;;;;38.93;16.80;;;-0.50;99.90;;;;;;4990721;28;20312;-83
2022/12/19 02:03:26;;;;;;;38.00;15.27;;;-0.50;99.90;;;;;;5004240;28;20191;-81
2022/12/19 02:05:53;;;;;;;40.40;16.50;;;-0.50;99.90;;;;;;4988030;28;20199;-80
2022/12/19 02:08:19;;;;;;;42.33;18.55;;;-0.40;99.90;;;;;;5002304;28;20202;-84
2022/12/19 02:10:45;;;;;;;36.35;18.77;;;-0.30;99.90;;;;;;4980362;28;20313;-81
2022/12/19 02:13:11;;;;;;;37.83;17.23;;;-0.30;99.90;;;;;;5002471;28;20186;-83
2022/12/19 02:15:58;;;;;;;39.35;18.92;;;-0.20;99.90;;;;;;4989346;28;20269;-82
2022/12/19 02:18:41;;;;;;;41.17;18.60;;;-0.10;99.90;;;;;;4974242;28;20273;-83
2022/12/19 02:21:14;;;;;;;40.67;19.05;;;-0.10;99.90;;;;;;5000059;28;21079;-83
2022/12/19 02:24:11;;;;;;;49.38;18.70;;;0.00;99.90;;;;;;4992727;28;20255;-82
2022/12/19 02:26:57;;;;;;;39.63;14.93;;;0.10;99.90;;;;;;5012307;28;20183;-83
2022/12/19 02:29:47;;;;;;;46.83;17.85;;;0.20;99.90;;;;;;4989990;28;20182;-82
2022/12/19 02:32:13;;;;;;;46.20;20.33;;;0.30;99.90;;;;;;4986238;28;20207;-80
2022/12/19 02:34:51;;;;;;;41.50;16.30;;;0.30;99.90;;;;;;4981402;28;20189;-81
2022/12/19 02:37:27;;;;;;;46.90;18.58;;;0.30;99.90;;;;;;4988213;28;20193;-82
2022/12/19 02:40:13;;;;;;;37.35;17.65;;;0.30;99.90;;;;;;4993036;28;20326;-81
2022/12/19 02:42:42;;;;;;;31.98;15.05;;;0.30;99.90;;;;;;4992340;28;20730;-81
2022/12/19 02:45:11;;;;;;;41.47;15.95;;;0.40;99.90;;;;;;4984019;28;20198;-81
2022/12/19 02:47:38;;;;;;;45.28;18.95;;;0.40;99.90;;;;;;4991131;28;20187;-81
2022/12/19 02:50:04;;;;;;;39.28;17.25;;;0.30;99.90;;;;;;4986101;28;20202;-82
2022/12/19 02:52:29;;;;;;;40.10;16.05;;;0.30;99.90;;;;;;4984443;28;20191;-81
2022/12/19 02:54:59;;;;;;;41.93;17.67;;;0.20;99.90;;;;;;4989571;28;20218;-81
2022/12/19 02:57:36;;;;;;;39.67;17.60;;;0.30;99.90;;;;;;4988487;28;20250;-83
2022/12/19 03:00:19;;;;;;;37.55;18.23;;;0.50;99.90;;;;;;5007077;28;20214;-82
2022/12/19 03:02:56;;;;;;;47.47;19.02;;;0.40;99.90;;;;;;4989482;28;20564;-81
2022/12/19 03:05:29;;;;;;;45.35;20.27;;;0.30;99.90;;;;;;4987776;28;20703;-82
2022/12/19 03:07:57;;;;;;;44.00;17.58;;;0.30;99.90;;;;;;4994440;28;20183;-82
2022/12/19 03:10:41;;;;;;;31.98;14.88;;;0.30;99.90;;;;;;4990667;28;20214;-80
2022/12/19 03:13:21;;;;;;;36.83;15.50;;;0.50;99.90;;;;;;5008480;28;20195;-83
2022/12/19 03:15:47;;;;;;;45.40;19.67;;;0.70;99.90;;;;;;4992600;28;20229;-82
2022/12/19 03:18:13;;;;;;;47.20;17.35;;;0.70;99.90;;;;;;4992492;28;20181;-83
2022/12/19 03:21:01;;;;;;;49.17;20.00;;;0.70;99.90;;;;;;5013808;28;20232;-83
2022/12/19 03:23:28;;;;;;;49.25;19.42;;;0.80;99.90;;;;;;4993613;28;20190;-81
2022/12/19 03:25:58;;;;;;;41.17;18.42;;;0.70;99.90;;;;;;5000034;28;20170;-80
2022/12/19 03:28:35;;;;;;;48.80;20.08;;;0.60;99.90;;;;;;4993744;28;20178;-80
2022/12/19 03:31:02;;;;;;;45.67;17.55;;;0.60;99.90;;;;;;4993191;28;20217;-81
2022/12/19 03:33:31;;;;;;;41.35;18.30;;;0.60;99.90;;;;;;4991863;28;20183;-80
2022/12/19 03:36:00;;;;;;;41.85;17.92;;;0.60;99.90;;;;;;4995720;28;20260;-83
2022/12/19 03:38:26;;;;;;;40.70;19.45;;;0.60;99.90;;;;;;4991022;28;20300;-85
2022/12/19 03:40:54;;;;;;;37.08;18.48;;;0.50;99.90;;;;;;5011780;28;20589;-83
2022/12/19 03:43:22;;;;;;;41.60;17.10;;;0.50;99.90;;;;;;4993214;28;20372;-81
2022/12/19 03:46:14;;;;;;;34.15;15.27;;;0.80;99.90;;;;;;5008759;28;20187;-80
2022/12/19 03:48:48;;;;;;;41.15;19.55;;;0.60;99.90;;;;;;4993670;28;20269;-81
2022/12/19 03:51:59;;;;;;;42.17;17.67;;;0.60;99.90;;;;;;4986425;28;20216;-83
2022/12/19 03:54:29;;;;;;;37.15;17.45;;;0.60;99.90;;;;;;4976447;28;20983;-81
2022/12/19 03:57:17;;;;;;;41.38;18.52;;;0.20;99.90;;;;;;5006910;28;20380;-81
2022/12/19 04:00:09;;;;;;;48.60;20.40;;;0.80;99.90;;;;;;5011656;28;20178;-83
2022/12/19 04:02:37;;;;;;;128.63;51.35;;;0.80;99.90;;;;;;4997446;28;20239;-82
2022/12/19 04:05:16;;;;;;;49.80;21.45;;;0.80;99.90;;;;;;5004264;28;20273;-84
2022/12/19 04:07:43;;;;;;;48.10;21.00;;;0.70;99.90;;;;;;4990970;28;20275;-82
2022/12/19 04:10:14;;;;;;;43.22;18.42;;;0.80;99.90;;;;;;5009139;28;20222;-86
2022/12/19 04:12:46;;;;;;;47.85;19.40;;;0.80;99.90;;;;;;4988371;28;20178;-84
2022/12/19 04:15:12;;;;;;;40.92;19.70;;;0.70;99.90;;;;;;4998110;28;20255;-84
2022/12/19 04:17:56;;;;;;;47.00;19.83;;;0.70;99.90;;;;;;4985486;28;20187;-80
2022/12/19 04:20:24;;;;;;;39.22;19.48;;;0.80;99.90;;;;;;4991893;28;20237;-81
2022/12/19 04:22:57;;;;;;;47.40;21.55;;;0.90;99.90;;;;;;5005871;28;20177;-84
2022/12/19 04:25:41;;;;;;;46.63;18.85;;;0.90;99.90;;;;;;4977318;28;20187;-81
2022/12/19 04:28:29;;;;;;;45.35;20.85;;;0.90;99.90;;;;;;4986692;28;20583;-84
2022/12/19 04:30:55;;;;;;;67.30;33.55;;;0.90;99.90;;;;;;4992547;28;20211;-83
2022/12/19 04:33:21;;;;;;;38.15;19.95;;;0.90;99.90;;;;;;4986836;28;20197;-83
2022/12/19 04:35:47;;;;;;;43.00;19.87;;;0.90;99.90;;;;;;4981212;28;20233;-79
2022/12/19 04:38:12;;;;;;;41.60;17.30;;;0.90;99.90;;;;;;4984152;28;20185;-82
2022/12/19 04:40:38;;;;;;;55.53;21.90;;;;;;;;;;4991163;28;20210;-83
2022/12/19 04:43:06;;;;;;;43.07;18.40;;;0.70;99.90;;;;;;5006638;28;20183;-81
2022/12/19 04:45:31;;;;;;;41.95;18.80;;;0.70;99.90;;;;;;5002751;28;20474;-84
2022/12/19 04:47:57;;;;;;;41.53;19.87;;;0.70;99.90;;;;;;4991232;28;20417;-83
2022/12/19 04:50:22;;;;;;;47.07;19.57;;;0.80;99.90;;;;;;5006758;28;20570;-81
2022/12/19 04:52:48;;;;;;;42.97;19.80;;;0.70;99.90;;;;;;5009643;28;20607;-84
2022/12/19 04:55:13;;;;;;;51.13;21.53;;;0.80;99.90;;;;;;4989715;28;20203;-84
2022/12/19 04:57:39;;;;;;;46.40;19.07;;;;;;;;;;4996097;28;20191;-84
2022/12/19 05:00:07;;;;;;;46.00;19.27;;;0.50;99.90;;;;;;4992756;28;20202;-80
2022/12/19 05:02:33;;;;;;;46.47;20.77;;;0.30;99.90;;;;;;4990909;28;20437;-83
2022/12/19 05:04:59;;;;;;;37.35;18.63;;;0.30;99.90;;;;;;4995389;28;20174;-83
2022/12/19 05:07:24;;;;;;;46.60;20.40;;;0.40;99.90;;;;;;4993891;28;20183;-83
2022/12/19 05:09:50;;;;;;;59.27;23.13;;;0.40;99.90;;;;;;4993229;28;20595;-83
2022/12/19 05:12:15;;;;;;;50.63;25.40;;;0.60;99.90;;;;;;4994380;28;20175;-81
2022/12/19 05:14:41;;;;;;;55.60;22.27;;;0.70;99.90;;;;;;5002006;28;20183;-82
2022/12/19 05:17:07;;;;;;;47.80;22.48;;;0.80;99.90;;;;;;4989532;28;20199;-82
2022/12/19 05:19:33;;;;;;;44.30;22.60;;;;;;;;;;4993454;28;20193;-82
2022/12/19 05:21:58;;;;;;;54.37;23.40;;;1.00;99.90;;;;;;4985408;28;20182;-83
2022/12/19 05:24:24;;;;;;;48.97;20.57;;;1.00;99.90;;;;;;4992432;28;20429;-79
2022/12/19 05:26:50;;;;;;;53.33;21.67;;;;;;;;;;4989391;28;20277;-84
2022/12/19 05:29:16;;;;;;;45.00;19.93;;;0.80;99.90;;;;;;4991358;28;20687;-85
2022/12/19 05:31:42;;;;;;;46.07;19.97;;;;;;;;;;4990963;28;20468;-81
2022/12/19 05:34:11;;;;;;;44.70;19.67;;;0.90;99.90;;;;;;4993729;28;20531;-83
2022/12/19 05:36:37;;;;;;;44.15;20.77;;;;;;;;;;4994768;28;20226;-86
2022/12/19 05:39:03;;;;;;;40.78;19.67;;;1.00;99.90;;;;;;4992863;28;20174;-81
2022/12/19 05:41:28;;;;;;;47.30;20.27;;;1.00;99.90;;;;;;4997997;28;20199;-83
2022/12/19 05:43:55;;;;;;;42.43;19.80;;;1.10;99.90;;;;;;4993684;28;20237;-82
2022/12/19 05:46:22;;;;;;;45.17;20.30;;;1.70;99.90;;;;;;4992239;28;20191;-81
2022/12/19 05:48:48;;;;;;;55.40;18.98;;;1.00;99.90;;;;;;4992756;28;20186;-82
2022/12/19 05:51:14;;;;;;;53.17;21.90;;;1.00;99.90;;;;;;4988676;28;20273;-81
2022/12/19 05:53:40;;;;;;;56.43;21.53;;;0.80;99.90;;;;;;4990560;28;20212;-83
2022/12/19 05:56:17;;;;;;;46.13;19.92;;;0.80;99.90;;;;;;4986913;28;20465;-83
2022/12/19 05:58:43;;;;;;;41.85;19.52;;;0.80;99.90;;;;;;5015113;28;20186;-80
2022/12/19 06:01:12;;;;;;;48.40;21.65;;;0.70;99.90;;;;;;4995317;28;20755;-83
2022/12/19 06:03:38;;;;;;;49.15;20.50;;;0.80;99.90;;;;;;4985674;28;20194;-84
2022/12/19 06:06:07;;;;;;;45.53;21.08;;;0.80;99.90;;;;;;5006895;28;20218;-81
2022/12/19 06:08:33;;;;;;;45.88;21.27;;;0.90;99.90;;;;;;5005908;28;20186;-81
2022/12/19 06:11:01;;;;;;;50.50;20.50;;;0.70;99.90;;;;;;5010737;28;20230;-82
2022/12/19 06:13:28;;;;;;;47.47;19.63;;;0.70;99.90;;;;;;5005345;28;20183;-85
2022/12/19 06:16:04;;;;;;;47.35;20.90;;;0.70;99.90;;;;;;5014165;28;20209;-85
2022/12/19 06:18:31;;;;;;;58.47;23.25;;;0.60;99.90;;;;;;4995689;28;20571;-83
2022/12/19 06:21:02;;;;;;;46.05;19.60;;;0.60;99.90;;;;;;4995671;28;20198;-85
2022/12/19 06:23:30;;;;;;;44.33;21.60;;;0.60;99.90;;;;;;4996254;28;20197;-85
2022/12/19 06:25:57;;;;;;;56.58;21.25;;;0.70;99.90;;;;;;4989311;28;20179;-84
2022/12/19 06:28:24;;;;;;;45.28;21.02;;;0.80;99.90;;;;;;4994612;28;20665;-84
2022/12/19 06:30:49;;;;;;;54.80;22.65;;;0.90;99.90;;;;;;4988169;28;20202;-83
2022/12/19 06:33:15;;;;;;;45.83;21.50;;;0.90;99.90;;;;;;4992339;28;20690;-82
2022/12/19 06:35:40;;;;;;;50.33;22.37;;;0.90;99.90;;;;;;4987982;28;20217;-81
2022/12/19 06:38:06;;;;;;;47.30;21.67;;;;;;;;;;4992327;28;20174;-84
2022/12/19 06:43:16;;;;;;;51.33;22.38;;;0.90;99.90;;;;;;4987873;28;20540;-83
2022/12/19 06:45:41;;;;;;;46.40;22.90;;;0.20;99.90;;;;;;4999171;28;20564;-84
2022/12/19 06:48:07;;;;;;;39.73;19.13;;;0.90;99.90;;;;;;4993684;28;20199;-84
2022/12/19 06:50:34;;;;;;;53.70;19.43;;;;;;;;;;4996793;28;20206;-84
2022/12/19 06:53:00;;;;;;;51.25;20.73;;;1.00;99.90;;;;;;4994677;28;20682;-82
2022/12/19 06:55:25;;;;;;;62.73;20.90;;;1.00;99.90;;;;;;4997940;28;20190;-82
2022/12/19 06:57:51;;;;;;;41.67;19.50;;;1.00;99.90;;;;;;4996363;28;20442;-81
2022/12/19 07:00:17;;;;;;;49.23;18.83;;;1.00;99.90;;;;;;4994371;28;20214;-84
2022/12/19 07:02:48;;;;;;;60.00;20.27;;;1.10;99.90;;;;;;4992891;28;20191;-81
2022/12/19 07:05:14;;;;;;;58.30;22.55;;;1.20;99.90;;;;;;4999891;28;20186;-84
2022/12/19 07:07:40;;;;;;;48.30;18.90;;;1.30;99.90;;;;;;4989874;28;20182;-81
2022/12/19 07:10:06;;;;;;;45.60;18.77;;;1.40;99.90;;;;;;4987963;28;20598;-83
2022/12/19 07:12:32;;;;;;;49.08;19.80;;;1.50;99.90;;;;;;4990827;28;20183;-82
2022/12/19 07:14:57;;;;;;;48.07;20.60;;;1.60;99.90;;;;;;4994339;28;20634;-80
2022/12/19 07:17:24;;;;;;;62.27;22.63;;;1.50;99.90;;;;;;4989250;28;20300;-82
2022/12/19 07:19:52;;;;;;;48.22;22.20;;;2.20;99.90;;;;;;4994344;28;20202;-82
2022/12/19 07:22:17;;;;;;;54.50;21.15;;;1.30;99.90;;;;;;4989360;28;20182;-80
2022/12/19 07:24:43;;;;;;;46.70;21.00;;;1.20;99.90;;;;;;4992536;28;20237;-83
2022/12/19 07:27:09;;;;;;;55.47;23.37;;;;;;;;;;5006204;28;20186;-79
2022/12/19 07:29:35;;;;;;;52.97;21.97;;;1.20;99.90;;;;;;4995020;28;20212;-83
2022/12/19 07:32:00;;;;;;;48.80;20.80;;;1.20;99.90;;;;;;4990373;28;20456;-82
2022/12/19 07:34:26;;;;;;;55.00;23.37;;;1.20;99.90;;;;;;5014987;28;20197;-86
2022/12/19 07:36:51;;;;;;;48.10;21.80;;;1.20;99.90;;;;;;4994639;28;20215;-84
2022/12/19 07:39:17;;;;;;;43.37;20.07;;;;;;;;;;4997742;28;20605;-83
2022/12/19 07:41:43;;;;;;;51.55;22.45;;;1.20;99.90;;;;;;5014266;28;20194;-86
2022/12/19 07:44:12;;;;;;;39.80;19.03;;;1.30;99.90;;;;;;4994716;28;20954;-82
2022/12/19 07:46:37;;;;;;;41.72;20.67;;;1.30;99.90;;;;;;5004120;28;20437;-86
2022/12/19 07:49:03;;;;;;;55.13;21.00;;;1.20;99.90;;;;;;5015746;28;20197;-85
2022/12/19 07:51:29;;;;;;;49.20;18.43;;;1.20;99.90;;;;;;4991759;28;20210;-85
2022/12/19 07:53:54;;;;;;;41.50;19.47;;;1.30;99.90;;;;;;4991926;28;20250;-84
2022/12/19 07:56:20;;;;;;;46.97;21.13;;;1.30;99.90;;;;;;4999111;28;20270;-85
2022/12/19 07:58:45;;;;;;;43.43;19.43;;;1.40;99.90;;;;;;4995162;28;20193;-83
2022/12/19 08:01:11;;;;;;;46.90;18.37;;;1.50;99.90;;;;;;4997826;28;20213;-84
2022/12/19 08:03:37;;;;;;;57.80;21.60;;;1.70;99.90;;;;;;4990814;28;20186;-80
2022/12/19 08:06:04;;;;;;;41.20;19.00;;;1.90;99.90;;;;;;4991922;28;21242;-82
2022/12/19 08:08:31;;;;;;;41.20;20.25;;;1.90;99.90;;;;;;4992142;28;20469;-80
2022/12/19 08:11:18;;;;;;;50.75;21.33;;;1.90;99.90;;;;;;4991100;28;20337;-81
2022/12/19 08:13:44;;;;;;;45.17;20.25;;;2.00;99.90;;;;;;4990588;28;20187;-82
2022/12/19 08:16:10;;;;;;;36.05;19.98;;;2.00;99.90;;;;;;4980021;28;20199;-80
2022/12/19 08:18:36;;;;;;;45.93;23.93;;;2.10;99.90;;;;;;5006434;28;20210;-81
2022/12/19 08:21:02;;;;;;;40.87;20.03;;;2.20;99.90;;;;;;5009474;28;20596;-80
2022/12/19 08:23:28;;;;;;;49.00;19.30;;;;;;;;;;4990624;28;20511;-83
2022/12/19 08:26:05;;;;;;;49.00;20.87;;;2.60;99.90;;;;;;4992482;28;20453;-85
2022/12/19 08:28:35;;;;;;;45.65;19.60;;;2.80;99.90;;;;;;4991145;28;21474;-81
2022/12/19 08:31:13;;;;;;;36.20;19.77;;;2.80;99.90;;;;;;4986275;28;20202;-80
2022/12/19 08:33:39;;;;;;;41.28;19.98;;;3.00;99.90;;;;;;5012223;28;20202;-81
2022/12/19 08:36:07;;;;;;;44.60;19.03;;;3.20;99.90;;;;;;4986694;28;20289;-81
2022/12/19 08:38:33;;;;;;;48.60;20.13;;;3.20;99.90;;;;;;4992957;28;20437;-83
2022/12/19 08:40:59;;;;;;;44.13;20.85;;;3.40;99.90;;;;;;4996325;28;20195;-83
2022/12/19 08:43:26;;;;;;;38.30;19.80;;;3.10;99.90;;;;;;5006410;28;20233;-81
2022/12/19 08:45:51;;;;;;;40.22;18.67;;;3.50;99.90;;;;;;4996985;28;20178;-81
2022/12/19 08:48:17;;;;;;;46.50;21.00;;;;;;;;;;4993029;28;20723;-84
2022/12/19 08:50:55;;;;;;;37.80;18.25;;;3.50;99.90;;;;;;4993110;28;20229;-84
2022/12/19 08:53:23;;;;;;;39.92;18.75;;;3.40;99.90;;;;;;4997028;28;20963;-82
2022/12/19 08:55:59;;;;;;;44.53;19.35;;;3.20;99.90;;;;;;4992142;28;20203;-83
2022/12/19 08:58:26;;;;;;;39.97;19.25;;;3.10;99.90;;;;;;4991814;28;20564;-81
2022/12/19 09:00:52;;;;;;;45.13;19.48;;;3.20;99.90;;;;;;4992033;28;20213;-82
2022/12/19 09:03:19;;;;;;;35.78;18.00;;;3.20;99.90;;;;;;5008263;28;20943;-82
2022/12/19 09:05:44;;;;;;;44.55;19.48;;;3.20;99.90;;;;;;4988337;28;20194;-83
2022/12/19 09:08:10;;;;;;;46.77;19.17;;;3.10;99.90;;;;;;4990927;28;20191;-83
2022/12/19 09:10:37;;;;;;;41.73;18.53;;;3.30;99.90;;;;;;4983479;28;20472;-82
2022/12/19 09:13:04;;;;;;;42.22;19.65;;;3.30;99.90;;;;;;4991103;28;20299;-83
2022/12/19 09:15:30;;;;;;;41.17;19.52;;;3.60;99.90;;;;;;5010290;28;20199;-83
2022/12/19 09:17:55;;;;;;;45.60;19.90;;;3.90;99.90;;;;;;4989969;28;20676;-84
2022/12/19 09:20:21;;;;;;;38.23;18.90;;;4.10;99.90;;;;;;4984955;28;20505;-82
2022/12/19 09:22:47;;;;;;;36.77;17.63;;;4.10;99.90;;;;;;4997750;28;20257;-84
2022/12/19 09:25:13;;;;;;;39.80;18.57;;;;;;;;;;4994392;28;20880;-81
2022/12/19 09:27:39;;;;;;;33.10;16.90;;;;;;;;;;5006581;28;20269;-83
2022/12/19 09:30:05;;;;;;;40.00;19.73;;;3.80;99.90;;;;;;4997153;28;20537;-86
2022/12/19 09:32:30;;;;;;;39.13;18.40;;;4.00;99.90;;;;;;4997541;28;20190;-82
2022/12/19 09:34:56;;;;;;;34.23;17.57;;;;;;;;;;4986768;28;20221;-83
2022/12/19 09:37:22;;;;;;;43.07;20.07;;;4.00;99.90;;;;;;5013335;28;20183;-83
2022/12/19 09:39:48;;;;;;;35.97;18.23;;;;;;;;;;4995608;28;21212;-82
2022/12/19 09:42:22;;;;;;;40.03;20.77;;;3.80;99.90;;;;;;4995169;28;20320;-83
2022/12/19 09:45:08;;;;;;;36.67;18.15;;;3.90;99.90;;;;;;4991823;28;20433;-81
2022/12/19 09:47:39;;;;;;;42.10;18.08;;;4.00;99.90;;;;;;4992549;28;21043;-79
2022/12/19 09:50:21;;;;;;;41.75;19.55;;;4.20;99.90;;;;;;5014764;28;20689;-84
2022/12/19 09:52:56;;;;;;;42.55;19.73;;;4.60;99.90;;;;;;5007551;28;20189;-85
2022/12/19 09:55:31;;;;;;;38.40;19.52;;;5.00;99.90;;;;;;4993731;28;20847;-84
2022/12/19 09:58:04;;;;;;;39.95;17.63;;;5.20;99.90;;;;;;5008391;28;20214;-81
2022/12/19 10:00:37;;;;;;;40.67;17.92;;;5.60;99.90;;;;;;5015772;28;20234;-79
2022/12/19 10:03:22;;;;;;;38.05;18.55;;;5.80;99.90;;;;;;5011123;28;20229;-85
2022/12/19 10:05:59;;;;;;;45.28;20.13;;;5.70;99.90;;;;;;4994649;28;20187;-79
2022/12/19 10:08:36;;;;;;;43.25;18.88;;;5.40;99.90;;;;;;4996935;28;20178;-82
2022/12/19 10:11:09;;;;;;;38.28;19.88;;;5.20;99.90;;;;;;4997090;28;20226;-81
2022/12/19 10:14:03;;;;;;;42.05;17.25;;;5.00;99.90;;;;;;4995489;28;20179;-81
2022/12/19 10:16:51;;;;;;;39.83;19.20;;;4.60;99.90;;;;;;4975794;28;20218;-81
2022/12/19 10:19:24;;;;;;;37.17;18.35;;;4.80;99.90;;;;;;4991605;28;20245;-80
2022/12/19 10:22:05;;;;;;;43.85;20.90;;;4.70;99.90;;;;;;4988126;28;20209;-80
2022/12/19 10:24:50;;;;;;;36.47;18.20;;;4.90;99.90;;;;;;4992386;28;20190;-81
2022/12/19 10:27:30;;;;;;;34.10;17.55;;;4.90;99.90;;;;;;4992454;28;20244;-82
2022/12/19 10:30:08;;;;;;;41.72;19.27;;;5.30;99.90;;;;;;4987446;28;20210;-78
2022/12/19 10:32:50;;;;;;;35.90;17.38;;;5.80;99.90;;;;;;4988573;28;20739;-81
2022/12/19 10:35:18;;;;;;;40.80;16.92;;;6.40;99.90;;;;;;4994147;28;20229;-81
2022/12/19 10:38:03;;;;;;;31.48;16.85;;;6.50;99.90;;;;;;4993334;28;20819;-81
2022/12/19 10:40:36;;;;;;;38.45;16.83;;;6.80;99.90;;;;;;4993519;28;21237;-81
2022/12/19 10:43:30;;;;;;;39.88;18.40;;;7.00;99.90;;;;;;4986079;28;20325;-81
2022/12/19 10:46:08;;;;;;;37.90;16.98;;;7.10;99.90;;;;;;4991619;28;20191;-83
2022/12/19 10:48:33;;;;;;;33.25;16.40;;;7.00;99.90;;;;;;5002563;28;20204;-85
2022/12/19 10:50:59;;;;;;;32.10;16.77;;;6.60;99.90;;;;;;5004306;28;20207;-81
2022/12/19 10:53:28;;;;;;;32.15;17.73;;;6.40;99.90;;;;;;4987362;28;20226;-84
2022/12/19 10:55:59;;;;;;;36.83;17.25;;;6.20;99.90;;;;;;4989462;28;20301;-85
2022/12/19 10:58:32;;;;;;;35.67;17.75;;;6.10;99.90;;;;;;4989155;28;20210;-86
2022/12/19 11:01:14;;;;;;;40.60;18.98;;;6.00;99.90;;;;;;4993169;28;20199;-85
2022/12/19 11:03:47;;;;;;;36.88;17.52;;;6.30;99.90;;;;;;4990715;28;20182;-85
2022/12/19 11:06:41;;;;;;;37.53;17.75;;;6.50;99.90;;;;;;4999582;28;20221;-78
2022/12/19 11:09:17;;;;;;;25.75;13.40;;;6.50;99.90;;;;;;4990748;28;20183;-80
2022/12/19 11:11:43;;;;;;;35.13;16.70;;;6.80;99.90;;;;;;4987403;28;20233;-83
2022/12/19 11:14:28;;;;;;;29.73;16.90;;;7.20;99.90;;;;;;5014631;28;20559;-81
2022/12/19 11:16:54;;;;;;;36.03;17.48;;;;;;;;;;5003804;28;20232;-81
2022/12/19 11:19:33;;;;;;;40.75;18.92;;;7.50;99.90;;;;;;4994707;28;20563;-84
2022/12/19 11:22:05;;;;;;;33.70;16.40;;;7.50;99.90;;;;;;4990992;28;20259;-86
2022/12/19 11:24:38;;;;;;;29.92;16.52;;;7.40;99.90;;;;;;5007978;28;20183;-82
2022/12/19 11:27:38;;;;;;;28.75;16.77;;;6.90;99.90;;;;;;5003113;28;20222;-82
2022/12/19 11:30:18;;;;;;;36.13;17.63;;;7.10;99.90;;;;;;4991497;28;20217;-78
2022/12/19 11:32:46;;;;;;;30.42;16.25;;;7.20;99.90;;;;;;4991734;28;20801;-80
2022/12/19 11:35:23;;;;;;;41.03;17.15;;;7.50;99.90;;;;;;5012903;28;20191;-78
2022/12/19 11:38:03;;;;;;;39.17;18.45;;;7.80;99.90;;;;;;4993780;28;20186;-82
2022/12/19 11:40:46;;;;;;;32.42;17.38;;;7.80;99.90;;;;;;5004174;28;20215;-81
2022/12/19 11:43:33;;;;;;;38.00;15.75;;;7.90;99.90;;;;;;4987556;28;20195;-83
2022/12/19 11:46:16;;;;;;;32.50;16.92;;;7.90;99.90;;;;;;5002834;28;20186;-80
2022/12/19 11:49:23;;;;;;;29.10;15.85;;;7.70;99.90;;;;;;4988831;28;20178;-81
2022/12/19 11:51:55;;;;;;;29.48;15.05;;;7.50;99.90;;;;;;4973860;28;20628;-81
2022/12/19 11:54:35;;;;;;;32.20;17.20;;;7.50;99.90;;;;;;4976781;28;20183;-81
2022/12/19 11:57:01;;;;;;;31.85;14.40;;;7.40;99.90;;;;;;4977903;28;20226;-82
2022/12/19 11:59:31;;;;;;;32.83;15.27;;;7.60;99.90;;;;;;4994803;28;20552;-82
2022/12/19 12:02:06;;;;;;;26.55;14.55;;;7.60;99.90;;;;;;4990436;28;20453;-79
2022/12/19 12:04:50;;;;;;;34.22;17.45;;;7.70;99.90;;;;;;5016768;28;20815;-85
2022/12/19 12:07:16;;;;;;;29.10;16.60;;;7.60;99.90;;;;;;4989101;28;20190;-82
2022/12/19 12:09:49;;;;;;;27.33;15.27;;;7.60;99.90;;;;;;4985848;28;20202;-81
2022/12/19 12:12:45;;;;;;;32.17;16.23;;;7.60;99.90;;;;;;4990372;28;20586;-84
2022/12/19 12:15:35;;;;;;;25.95;14.20;;;7.50;99.90;;;;;;4990564;28;20190;-84
2022/12/19 12:18:18;;;;;;;25.15;14.20;;;7.70;99.90;;;;;;4990613;28;20236;-82
2022/12/19 12:21:01;;;;;;;22.20;12.88;;;8.00;99.90;;;;;;4993810;28;20209;-82
2022/12/19 12:23:47;;;;;;;30.42;13.70;;;8.20;99.90;;;;;;4992058;28;20660;-84
2022/12/19 12:26:25;;;;;;;26.73;13.88;;;8.30;99.90;;;;;;4988031;28;20199;-82
2022/12/19 12:29:19;;;;;;;24.25;14.52;;;8.30;99.90;;;;;;5002414;28;20189;-84
2022/12/19 12:32:08;;;;;;;26.60;13.65;;;8.30;99.90;;;;;;4997163;28;20204;-84
2022/12/19 12:34:54;;;;;;;31.33;13.23;;;8.20;99.90;;;;;;4993655;28;20210;-84
2022/12/19 12:37:42;;;;;;;26.63;13.75;;;8.00;99.90;;;;;;5015045;28;20268;-81
2022/12/19 12:40:23;;;;;;;25.67;13.90;;;7.90;99.90;;;;;;4999520;28;20415;-84
2022/12/19 12:43:29;;;;;;;30.25;14.55;;;7.90;99.90;;;;;;5003088;28;20186;-82
2022/12/19 12:45:54;;;;;;;23.42;11.85;;;7.80;99.90;;;;;;4992992;28;20179;-82
2022/12/19 12:48:25;;;;;;;23.83;13.97;;;7.80;99.90;;;;;;5003538;28;20193;-83
2022/12/19 12:50:52;;;;;;;19.33;10.85;;;7.80;99.90;;;;;;4996259;28;20202;-83
2022/12/19 12:53:23;;;;;;;24.52;12.13;;;7.90;99.90;;;;;;4996644;28;20186;-82
2022/12/19 12:55:50;;;;;;;28.52;16.10;;;8.10;99.90;;;;;;4995845;28;20300;-80
2022/12/19 12:58:50;;;;;;;31.30;15.35;;;8.00;99.90;;;;;;4993359;28;20278;-81
2022/12/19 13:01:28;;;;;;;35.08;16.35;;;7.90;99.90;;;;;;4986592;28;20215;-82
2022/12/19 13:04:01;;;;;;;29.58;15.00;;;7.80;99.90;;;;;;4998279;28;20189;-83
2022/12/19 13:06:59;;;;;;;31.80;16.88;;;7.70;99.90;;;;;;4988701;28;20197;-82